sensor_id;sensor_type;location;lat;lon;timestamp;temperature;humidity
45008;DHT22;30743;52.008;5.644;2023-04-24T00:01:40;11.80;99.90
45008;DHT22;30743;52.008;5.644;2023-04-24T00:04:06;12.30;99.90
45008;DHT22;30743;52.008;5.644;2023-04-24T00:06:32;11.90;99.90
45008;DHT22;30743;52.008;5.644;2023-04-24T00:09:02;12.00;99.90
45008;DHT22;30743;52.008;5.644;2023-04-24T00:11:28;12.00;99.90
45008;DHT22;30743;52.008;5.644;2023-04-24T00:13:55;12.00;99.90
45008;DHT22;30743;52.008;5.644;2023-04-24T00:16:21;12.00;99.90
45008;DHT22;30743;52.008;5.644;2023-04-24T00:18:47;12.00;99.90
45008;DHT22;30743;52.008;5.644;2023-04-24T00:21:18;11.90;99.90
45008;DHT22;30743;52.008;5.644;2023-04-24T00:23:43;11.90;99.90
45008;DHT22;30743;52.008;5.644;2023-04-24T00:26:09;11.90;99.90
45008;DHT22;30743;52.008;5.644;2023-04-24T00:28:35;12.10;99.90
45008;DHT22;30743;52.008;5.644;2023-04-24T00:31:01;11.90;99.90
45008;DHT22;30743;52.008;5.644;2023-04-24T00:33:26;11.90;99.90
45008;DHT22;30743;52.008;5.644;2023-04-24T00:35:52;11.90;99.90
45008;DHT22;30743;52.008;5.644;2023-04-24T00:38:18;11.90;99.90
45008;DHT22;30743;52.008;5.644;2023-04-24T00:40:43;11.90;99.90
45008;DHT22;30743;52.008;5.644;2023-04-24T00:43:09;11.80;99.90
45008;DHT22;30743;52.008;5.644;2023-04-24T00:45:35;11.80;99.90
45008;DHT22;30743;52.008;5.644;2023-04-24T00:48:01;11.70;99.90
45008;DHT22;30743;52.008;5.644;2023-04-24T00:50:27;11.60;99.90
45008;DHT22;30743;52.008;5.644;2023-04-24T00:52:53;11.50;99.90
45008;DHT22;30743;52.008;5.644;2023-04-24T00:55:19;11.50;99.90
45008;DHT22;30743;52.008;5.644;2023-04-24T00:57:45;11.60;99.90
45008;DHT22;30743;52.008;5.644;2023-04-24T01:00:12;11.60;99.90
45008;DHT22;30743;52.008;5.644;2023-04-24T01:02:43;11.80;99.90
45008;DHT22;30743;52.008;5.644;2023-04-24T01:05:13;11.80;99.90
45008;DHT22;30743;52.008;5.644;2023-04-24T01:07:41;11.70;99.90
45008;DHT22;30743;52.008;5.644;2023-04-24T01:10:09;11.70;99.90
45008;DHT22;30743;52.008;5.644;2023-04-24T01:12:35;11.60;99.90
45008;DHT22;30743;52.008;5.644;2023-04-24T01:15:00;11.60;99.90
45008;DHT22;30743;52.008;5.644;2023-04-24T01:17:26;11.40;99.90
45008;DHT22;30743;52.008;5.644;2023-04-24T01:19:52;11.50;99.90
45008;DHT22;30743;52.008;5.644;2023-04-24T01:22:22;11.60;99.90
45008;DHT22;30743;52.008;5.644;2023-04-24T01:24:48;11.70;99.90
45008;DHT22;30743;52.008;5.644;2023-04-24T01:27:13;11.90;99.90
45008;DHT22;30743;52.008;5.644;2023-04-24T01:29:39;12.00;99.90
45008;DHT22;30743;52.008;5.644;2023-04-24T01:32:05;12.10;99.90
45008;DHT22;30743;52.008;5.644;2023-04-24T01:34:32;12.20;99.90
45008;DHT22;30743;52.008;5.644;2023-04-24T01:36:58;12.10;99.90
45008;DHT22;30743;52.008;5.644;2023-04-24T01:39:23;12.20;99.90
45008;DHT22;30743;52.008;5.644;2023-04-24T01:41:51;12.10;99.90
45008;DHT22;30743;52.008;5.644;2023-04-24T01:44:18;12.20;99.90
45008;DHT22;30743;52.008;5.644;2023-04-24T01:46:43;12.10;99.90
45008;DHT22;30743;52.008;5.644;2023-04-24T01:49:10;11.90;99.90
45008;DHT22;30743;52.008;5.644;2023-04-24T01:51:35;11.90;99.90
45008;DHT22;30743;52.008;5.644;2023-04-24T01:54:01;11.90;99.90
45008;DHT22;30743;52.008;5.644;2023-04-24T01:56:29;12.20;99.90
45008;DHT22;30743;52.008;5.644;2023-04-24T01:58:55;11.90;99.90
45008;DHT22;30743;52.008;5.644;2023-04-24T02:01:22;12.00;99.90
45008;DHT22;30743;52.008;5.644;2023-04-24T02:03:48;12.00;99.90
45008;DHT22;30743;52.008;5.644;2023-04-24T02:06:14;12.20;99.90
45008;DHT22;30743;52.008;5.644;2023-04-24T02:08:39;12.20;99.90
45008;DHT22;30743;52.008;5.644;2023-04-24T02:11:05;12.20;99.90
45008;DHT22;30743;52.008;5.644;2023-04-24T02:13:31;12.10;99.90
45008;DHT22;30743;52.008;5.644;2023-04-24T02:15:58;12.20;99.90
45008;DHT22;30743;52.008;5.644;2023-04-24T02:18:24;12.20;99.90
45008;DHT22;30743;52.008;5.644;2023-04-24T02:20:49;12.30;99.90
45008;DHT22;30743;52.008;5.644;2023-04-24T02:23:15;12.20;99.90
45008;DHT22;30743;52.008;5.644;2023-04-24T02:25:40;12.30;99.90
45008;DHT22;30743;52.008;5.644;2023-04-24T02:28:06;12.50;99.90
45008;DHT22;30743;52.008;5.644;2023-04-24T02:30:31;12.50;99.90
45008;DHT22;30743;52.008;5.644;2023-04-24T02:32:57;12.60;99.90
45008;DHT22;30743;52.008;5.644;2023-04-24T02:35:23;12.60;99.90
45008;DHT22;30743;52.008;5.644;2023-04-24T02:37:48;12.50;99.90
45008;DHT22;30743;52.008;5.644;2023-04-24T02:40:14;12.50;99.90
45008;DHT22;30743;52.008;5.644;2023-04-24T02:42:39;12.40;99.90
45008;DHT22;30743;52.008;5.644;2023-04-24T02:45:05;12.30;99.90
45008;DHT22;30743;52.008;5.644;2023-04-24T02:47:31;12.20;99.90
45008;DHT22;30743;52.008;5.644;2023-04-24T02:49:56;12.20;99.90
45008;DHT22;30743;52.008;5.644;2023-04-24T02:52:22;12.20;99.90
45008;DHT22;30743;52.008;5.644;2023-04-24T02:54:47;12.30;99.90
45008;DHT22;30743;52.008;5.644;2023-04-24T02:57:13;12.40;99.90
45008;DHT22;30743;52.008;5.644;2023-04-24T02:59:38;12.40;99.90
45008;DHT22;30743;52.008;5.644;2023-04-24T03:02:04;12.30;99.90
45008;DHT22;30743;52.008;5.644;2023-04-24T03:04:30;12.30;99.90
45008;DHT22;30743;52.008;5.644;2023-04-24T03:06:57;12.40;99.90
45008;DHT22;30743;52.008;5.644;2023-04-24T03:09:22;12.20;99.90
45008;DHT22;30743;52.008;5.644;2023-04-24T03:11:48;12.10;99.90
45008;DHT22;30743;52.008;5.644;2023-04-24T03:14:14;12.30;99.90
45008;DHT22;30743;52.008;5.644;2023-04-24T03:16:40;12.20;99.90
45008;DHT22;30743;52.008;5.644;2023-04-24T03:19:05;12.10;99.90
45008;DHT22;30743;52.008;5.644;2023-04-24T03:21:31;12.10;99.90
45008;DHT22;30743;52.008;5.644;2023-04-24T03:23:57;12.40;99.90
45008;DHT22;30743;52.008;5.644;2023-04-24T03:26:22;12.30;99.90
45008;DHT22;30743;52.008;5.644;2023-04-24T03:28:48;12.10;99.90
45008;DHT22;30743;52.008;5.644;2023-04-24T03:31:13;12.10;99.90
45008;DHT22;30743;52.008;5.644;2023-04-24T03:33:40;11.90;99.90
45008;DHT22;30743;52.008;5.644;2023-04-24T03:36:06;11.80;99.90
45008;DHT22;30743;52.008;5.644;2023-04-24T03:38:32;11.70;99.90
45008;DHT22;30743;52.008;5.644;2023-04-24T03:40:57;11.60;99.90
45008;DHT22;30743;52.008;5.644;2023-04-24T03:43:23;11.70;99.90
45008;DHT22;30743;52.008;5.644;2023-04-24T03:45:48;12.00;99.90
45008;DHT22;30743;52.008;5.644;2023-04-24T03:48:14;12.00;99.90
45008;DHT22;30743;52.008;5.644;2023-04-24T03:50:40;12.10;99.90
45008;DHT22;30743;52.008;5.644;2023-04-24T03:53:05;12.10;99.90
45008;DHT22;30743;52.008;5.644;2023-04-24T03:55:31;12.20;99.90
45008;DHT22;30743;52.008;5.644;2023-04-24T03:57:56;12.30;99.90
45008;DHT22;30743;52.008;5.644;2023-04-24T04:00:22;12.70;99.90
45008;DHT22;30743;52.008;5.644;2023-04-24T04:02:47;12.70;99.90
45008;DHT22;30743;52.008;5.644;2023-04-24T04:05:13;12.60;99.90
45008;DHT22;30743;52.008;5.644;2023-04-24T04:07:38;12.40;99.90
45008;DHT22;30743;52.008;5.644;2023-04-24T04:10:05;12.50;99.90
45008;DHT22;30743;52.008;5.644;2023-04-24T04:12:32;12.40;99.90
45008;DHT22;30743;52.008;5.644;2023-04-24T04:14:57;12.30;99.90
45008;DHT22;30743;52.008;5.644;2023-04-24T04:17:23;12.20;99.90
45008;DHT22;30743;52.008;5.644;2023-04-24T04:19:48;12.20;99.90
45008;DHT22;30743;52.008;5.644;2023-04-24T04:22:14;12.30;99.90
45008;DHT22;30743;52.008;5.644;2023-04-24T04:24:40;12.30;99.90
45008;DHT22;30743;52.008;5.644;2023-04-24T04:27:06;12.10;99.90
45008;DHT22;30743;52.008;5.644;2023-04-24T04:29:32;12.00;99.90
45008;DHT22;30743;52.008;5.644;2023-04-24T04:31:58;11.90;99.90
45008;DHT22;30743;52.008;5.644;2023-04-24T04:34:24;12.10;99.90
45008;DHT22;30743;52.008;5.644;2023-04-24T04:36:49;12.10;99.90
45008;DHT22;30743;52.008;5.644;2023-04-24T04:39:15;11.90;99.90
45008;DHT22;30743;52.008;5.644;2023-04-24T04:41:41;12.00;99.90
45008;DHT22;30743;52.008;5.644;2023-04-24T04:44:07;12.10;99.90
45008;DHT22;30743;52.008;5.644;2023-04-24T04:46:34;12.20;99.90
45008;DHT22;30743;52.008;5.644;2023-04-24T04:49:02;12.30;99.90
45008;DHT22;30743;52.008;5.644;2023-04-24T04:51:28;12.60;99.90
45008;DHT22;30743;52.008;5.644;2023-04-24T04:53:54;12.80;99.90
45008;DHT22;30743;52.008;5.644;2023-04-24T04:56:19;13.10;99.90
45008;DHT22;30743;52.008;5.644;2023-04-24T04:58:45;13.30;99.90
45008;DHT22;30743;52.008;5.644;2023-04-24T05:01:10;13.60;99.90
45008;DHT22;30743;52.008;5.644;2023-04-24T05:03:36;13.70;99.90
45008;DHT22;30743;52.008;5.644;2023-04-24T05:06:01;13.90;99.90
45008;DHT22;30743;52.008;5.644;2023-04-24T05:08:27;14.00;99.90
45008;DHT22;30743;52.008;5.644;2023-04-24T05:10:54;14.00;99.90
45008;DHT22;30743;52.008;5.644;2023-04-24T05:13:20;14.00;99.90
45008;DHT22;30743;52.008;5.644;2023-04-24T05:15:45;14.10;99.90
45008;DHT22;30743;52.008;5.644;2023-04-24T05:18:11;14.10;99.90
45008;DHT22;30743;52.008;5.644;2023-04-24T05:20:36;14.00;99.90
45008;DHT22;30743;52.008;5.644;2023-04-24T05:23:02;14.00;99.90
45008;DHT22;30743;52.008;5.644;2023-04-24T05:25:28;14.00;99.90
45008;DHT22;30743;52.008;5.644;2023-04-24T05:27:53;14.20;99.90
45008;DHT22;30743;52.008;5.644;2023-04-24T05:30:19;14.40;99.90
45008;DHT22;30743;52.008;5.644;2023-04-24T05:32:45;14.40;99.90
45008;DHT22;30743;52.008;5.644;2023-04-24T05:35:11;14.40;99.90
45008;DHT22;30743;52.008;5.644;2023-04-24T05:37:36;14.50;99.90
45008;DHT22;30743;52.008;5.644;2023-04-24T05:40:03;14.50;99.90
45008;DHT22;30743;52.008;5.644;2023-04-24T05:42:30;14.70;99.90
45008;DHT22;30743;52.008;5.644;2023-04-24T05:44:56;14.60;99.90
45008;DHT22;30743;52.008;5.644;2023-04-24T05:47:21;14.60;99.90
45008;DHT22;30743;52.008;5.644;2023-04-24T05:49:47;14.70;99.90
45008;DHT22;30743;52.008;5.644;2023-04-24T05:52:13;14.90;99.90
45008;DHT22;30743;52.008;5.644;2023-04-24T05:54:38;15.00;99.90
45008;DHT22;30743;52.008;5.644;2023-04-24T05:57:04;15.10;99.90
45008;DHT22;30743;52.008;5.644;2023-04-24T05:59:33;15.10;99.90
45008;DHT22;30743;52.008;5.644;2023-04-24T06:01:59;14.90;99.90
45008;DHT22;30743;52.008;5.644;2023-04-24T06:04:25;14.90;99.90
45008;DHT22;30743;52.008;5.644;2023-04-24T06:06:50;14.90;99.90
45008;DHT22;30743;52.008;5.644;2023-04-24T06:09:24;14.90;99.90
45008;DHT22;30743;52.008;5.644;2023-04-24T06:11:50;15.00;99.90
45008;DHT22;30743;52.008;5.644;2023-04-24T06:14:18;15.10;99.90
45008;DHT22;30743;52.008;5.644;2023-04-24T06:16:43;15.10;99.90
45008;DHT22;30743;52.008;5.644;2023-04-24T06:19:09;15.20;99.90
45008;DHT22;30743;52.008;5.644;2023-04-24T06:21:35;15.00;99.90
45008;DHT22;30743;52.008;5.644;2023-04-24T06:24:00;15.10;99.90
45008;DHT22;30743;52.008;5.644;2023-04-24T06:26:26;15.00;99.90
45008;DHT22;30743;52.008;5.644;2023-04-24T06:28:52;15.10;99.90
45008;DHT22;30743;52.008;5.644;2023-04-24T06:31:19;15.00;99.90
45008;DHT22;30743;52.008;5.644;2023-04-24T06:33:45;15.00;99.90
45008;DHT22;30743;52.008;5.644;2023-04-24T06:36:12;14.80;99.90
45008;DHT22;30743;52.008;5.644;2023-04-24T06:38:37;14.80;99.90
45008;DHT22;30743;52.008;5.644;2023-04-24T06:41:03;15.00;99.90
45008;DHT22;30743;52.008;5.644;2023-04-24T06:43:31;14.90;99.90
45008;DHT22;30743;52.008;5.644;2023-04-24T06:45:57;14.80;99.90
45008;DHT22;30743;52.008;5.644;2023-04-24T06:48:24;14.70;99.90
45008;DHT22;30743;52.008;5.644;2023-04-24T06:50:49;14.70;99.90
45008;DHT22;30743;52.008;5.644;2023-04-24T06:53:15;14.50;99.90
45008;DHT22;30743;52.008;5.644;2023-04-24T06:55:40;14.50;99.90
45008;DHT22;30743;52.008;5.644;2023-04-24T06:58:06;14.30;99.90
45008;DHT22;30743;52.008;5.644;2023-04-24T07:00:32;14.20;99.90
45008;DHT22;30743;52.008;5.644;2023-04-24T07:02:57;14.10;99.90
45008;DHT22;30743;52.008;5.644;2023-04-24T07:05:25;13.80;99.90
45008;DHT22;30743;52.008;5.644;2023-04-24T07:07:51;13.80;99.90
45008;DHT22;30743;52.008;5.644;2023-04-24T07:10:19;13.80;99.90
45008;DHT22;30743;52.008;5.644;2023-04-24T07:12:45;13.60;99.90
45008;DHT22;30743;52.008;5.644;2023-04-24T07:15:12;13.50;99.90
45008;DHT22;30743;52.008;5.644;2023-04-24T07:17:37;13.50;99.90
45008;DHT22;30743;52.008;5.644;2023-04-24T07:20:04;13.70;99.90
45008;DHT22;30743;52.008;5.644;2023-04-24T07:22:30;13.70;99.90
45008;DHT22;30743;52.008;5.644;2023-04-24T07:24:56;13.80;99.90
45008;DHT22;30743;52.008;5.644;2023-04-24T07:27:22;13.60;99.90
45008;DHT22;30743;52.008;5.644;2023-04-24T07:29:48;13.60;99.90
45008;DHT22;30743;52.008;5.644;2023-04-24T07:32:13;13.60;99.90
45008;DHT22;30743;52.008;5.644;2023-04-24T07:34:39;13.60;99.90
45008;DHT22;30743;52.008;5.644;2023-04-24T07:37:05;13.40;99.90
45008;DHT22;30743;52.008;5.644;2023-04-24T07:39:31;13.50;99.90
45008;DHT22;30743;52.008;5.644;2023-04-24T07:41:57;13.50;99.90
45008;DHT22;30743;52.008;5.644;2023-04-24T07:44:24;13.40;99.90
45008;DHT22;30743;52.008;5.644;2023-04-24T07:46:49;13.30;99.90
45008;DHT22;30743;52.008;5.644;2023-04-24T07:49:15;13.10;99.90
45008;DHT22;30743;52.008;5.644;2023-04-24T07:51:41;13.20;99.90
45008;DHT22;30743;52.008;5.644;2023-04-24T07:54:06;13.40;99.90
45008;DHT22;30743;52.008;5.644;2023-04-24T07:56:33;13.40;99.90
45008;DHT22;30743;52.008;5.644;2023-04-24T07:58:59;13.30;99.90
45008;DHT22;30743;52.008;5.644;2023-04-24T08:01:25;13.30;99.90
45008;DHT22;30743;52.008;5.644;2023-04-24T08:03:50;13.30;99.90
45008;DHT22;30743;52.008;5.644;2023-04-24T08:06:16;13.40;99.90
45008;DHT22;30743;52.008;5.644;2023-04-24T08:08:42;13.40;99.90
45008;DHT22;30743;52.008;5.644;2023-04-24T08:11:07;13.40;99.90
45008;DHT22;30743;52.008;5.644;2023-04-24T08:13:36;13.40;99.90
45008;DHT22;30743;52.008;5.644;2023-04-24T08:16:01;13.40;99.90
45008;DHT22;30743;52.008;5.644;2023-04-24T08:18:27;13.30;99.90
45008;DHT22;30743;52.008;5.644;2023-04-24T08:20:52;13.20;99.90
45008;DHT22;30743;52.008;5.644;2023-04-24T08:23:18;13.10;99.90
45008;DHT22;30743;52.008;5.644;2023-04-24T08:25:44;13.10;99.90
45008;DHT22;30743;52.008;5.644;2023-04-24T08:28:09;13.30;99.90
45008;DHT22;30743;52.008;5.644;2023-04-24T08:30:36;13.30;99.90
45008;DHT22;30743;52.008;5.644;2023-04-24T08:33:02;13.30;99.90
45008;DHT22;30743;52.008;5.644;2023-04-24T08:35:27;13.50;99.90
45008;DHT22;30743;52.008;5.644;2023-04-24T08:37:53;13.20;99.90
45008;DHT22;30743;52.008;5.644;2023-04-24T08:40:26;13.10;99.90
45008;DHT22;30743;52.008;5.644;2023-04-24T08:42:54;13.10;99.90
45008;DHT22;30743;52.008;5.644;2023-04-24T08:45:21;13.10;99.90
45008;DHT22;30743;52.008;5.644;2023-04-24T08:47:47;12.90;99.90
45008;DHT22;30743;52.008;5.644;2023-04-24T08:50:14;13.00;99.90
45008;DHT22;30743;52.008;5.644;2023-04-24T08:52:42;13.00;99.90
45008;DHT22;30743;52.008;5.644;2023-04-24T08:55:08;12.90;99.90
45008;DHT22;30743;52.008;5.644;2023-04-24T08:57:33;12.80;99.90
45008;DHT22;30743;52.008;5.644;2023-04-24T09:00:01;12.90;99.90
45008;DHT22;30743;52.008;5.644;2023-04-24T09:02:27;13.00;99.90
45008;DHT22;30743;52.008;5.644;2023-04-24T09:04:53;13.00;99.90
45008;DHT22;30743;52.008;5.644;2023-04-24T09:07:22;13.00;99.90
45008;DHT22;30743;52.008;5.644;2023-04-24T09:09:50;13.10;99.90
45008;DHT22;30743;52.008;5.644;2023-04-24T09:12:17;13.30;99.90
45008;DHT22;30743;52.008;5.644;2023-04-24T09:14:42;13.40;99.90
45008;DHT22;30743;52.008;5.644;2023-04-24T09:17:13;13.60;99.90
45008;DHT22;30743;52.008;5.644;2023-04-24T09:19:39;13.40;99.90
45008;DHT22;30743;52.008;5.644;2023-04-24T09:22:06;13.10;99.90
45008;DHT22;30743;52.008;5.644;2023-04-24T09:24:33;13.30;99.90
45008;DHT22;30743;52.008;5.644;2023-04-24T09:26:59;13.30;99.90
45008;DHT22;30743;52.008;5.644;2023-04-24T09:29:27;13.30;99.90
45008;DHT22;30743;52.008;5.644;2023-04-24T09:31:52;13.40;99.90
45008;DHT22;30743;52.008;5.644;2023-04-24T09:34:22;13.40;99.90
45008;DHT22;30743;52.008;5.644;2023-04-24T09:36:49;13.40;99.90
45008;DHT22;30743;52.008;5.644;2023-04-24T09:39:16;13.30;99.90
45008;DHT22;30743;52.008;5.644;2023-04-24T09:41:53;13.50;99.90
45008;DHT22;30743;52.008;5.644;2023-04-24T09:46:55;13.40;99.90
45008;DHT22;30743;52.008;5.644;2023-04-24T09:49:23;13.30;99.90
45008;DHT22;30743;52.008;5.644;2023-04-24T09:51:50;13.30;99.90
45008;DHT22;30743;52.008;5.644;2023-04-24T09:54:17;13.50;99.90
45008;DHT22;30743;52.008;5.644;2023-04-24T09:56:45;13.40;99.90
45008;DHT22;30743;52.008;5.644;2023-04-24T09:59:11;13.50;99.90
45008;DHT22;30743;52.008;5.644;2023-04-24T10:01:37;13.80;99.90
45008;DHT22;30743;52.008;5.644;2023-04-24T10:04:03;14.00;99.90
45008;DHT22;30743;52.008;5.644;2023-04-24T10:06:34;14.20;99.90
45008;DHT22;30743;52.008;5.644;2023-04-24T10:09:00;14.20;99.90
45008;DHT22;30743;52.008;5.644;2023-04-24T10:11:27;14.50;99.90
45008;DHT22;30743;52.008;5.644;2023-04-24T10:13:53;14.60;99.90
45008;DHT22;30743;52.008;5.644;2023-04-24T10:16:20;14.40;99.90
45008;DHT22;30743;52.008;5.644;2023-04-24T10:18:47;14.40;99.90
45008;DHT22;30743;52.008;5.644;2023-04-24T10:21:14;14.50;99.90
45008;DHT22;30743;52.008;5.644;2023-04-24T10:23:41;14.70;99.90
45008;DHT22;30743;52.008;5.644;2023-04-24T10:26:09;14.50;99.90
45008;DHT22;30743;52.008;5.644;2023-04-24T10:28:36;14.40;99.90
45008;DHT22;30743;52.008;5.644;2023-04-24T10:31:02;14.60;99.90
45008;DHT22;30743;52.008;5.644;2023-04-24T10:33:29;14.60;99.90
45008;DHT22;30743;52.008;5.644;2023-04-24T10:35:56;14.70;99.90
45008;DHT22;30743;52.008;5.644;2023-04-24T10:38:25;14.60;99.90
45008;DHT22;30743;52.008;5.644;2023-04-24T10:40:57;14.70;99.90
45008;DHT22;30743;52.008;5.644;2023-04-24T10:43:23;15.00;99.90
45008;DHT22;30743;52.008;5.644;2023-04-24T10:46:01;15.00;99.90
45008;DHT22;30743;52.008;5.644;2023-04-24T10:48:28;14.70;99.90
45008;DHT22;30743;52.008;5.644;2023-04-24T10:50:53;14.70;99.90
45008;DHT22;30743;52.008;5.644;2023-04-24T10:53:20;14.40;99.90
45008;DHT22;30743;52.008;5.644;2023-04-24T10:55:50;14.20;99.90
45008;DHT22;30743;52.008;5.644;2023-04-24T10:58:23;13.70;99.90
45008;DHT22;30743;52.008;5.644;2023-04-24T11:00:57;13.90;99.90
45008;DHT22;30743;52.008;5.644;2023-04-24T11:03:25;13.90;99.90
45008;DHT22;30743;52.008;5.644;2023-04-24T11:06:02;14.10;99.90
45008;DHT22;30743;52.008;5.644;2023-04-24T11:08:38;13.90;99.90
45008;DHT22;30743;52.008;5.644;2023-04-24T11:11:10;14.20;99.90
45008;DHT22;30743;52.008;5.644;2023-04-24T11:14:01;14.20;99.90
45008;DHT22;30743;52.008;5.644;2023-04-24T11:16:34;14.00;99.90
45008;DHT22;30743;52.008;5.644;2023-04-24T11:19:09;13.80;99.90
45008;DHT22;30743;52.008;5.644;2023-04-24T11:21:41;13.70;99.90
45008;DHT22;30743;52.008;5.644;2023-04-24T11:27:12;14.20;99.90
45008;DHT22;30743;52.008;5.644;2023-04-24T11:32:15;14.50;99.90
45008;DHT22;30743;52.008;5.644;2023-04-24T11:34:46;14.80;99.90
45008;DHT22;30743;52.008;5.644;2023-04-24T11:37:12;14.50;99.90
45008;DHT22;30743;52.008;5.644;2023-04-24T11:39:38;14.40;99.90
45008;DHT22;30743;52.008;5.644;2023-04-24T11:42:03;14.50;99.90
45008;DHT22;30743;52.008;5.644;2023-04-24T11:44:31;14.10;99.90
45008;DHT22;30743;52.008;5.644;2023-04-24T11:46:58;14.30;99.90
45008;DHT22;30743;52.008;5.644;2023-04-24T11:49:24;14.40;99.90
45008;DHT22;30743;52.008;5.644;2023-04-24T11:51:49;14.60;99.90
45008;DHT22;30743;52.008;5.644;2023-04-24T11:54:15;14.70;99.90
45008;DHT22;30743;52.008;5.644;2023-04-24T11:56:46;14.70;99.90
45008;DHT22;30743;52.008;5.644;2023-04-24T11:59:12;14.40;99.90
45008;DHT22;30743;52.008;5.644;2023-04-24T12:01:45;14.60;99.90
45008;DHT22;30743;52.008;5.644;2023-04-24T12:04:11;14.20;99.90
45008;DHT22;30743;52.008;5.644;2023-04-24T12:06:36;14.20;99.90
45008;DHT22;30743;52.008;5.644;2023-04-24T12:09:02;14.00;99.90
45008;DHT22;30743;52.008;5.644;2023-04-24T12:11:28;13.50;99.90
45008;DHT22;30743;52.008;5.644;2023-04-24T12:13:53;13.50;99.90
45008;DHT22;30743;52.008;5.644;2023-04-24T12:16:19;13.80;99.90
45008;DHT22;30743;52.008;5.644;2023-04-24T12:18:45;13.80;99.90
45008;DHT22;30743;52.008;5.644;2023-04-24T12:21:21;14.00;99.90
45008;DHT22;30743;52.008;5.644;2023-04-24T12:23:48;14.50;99.90
45008;DHT22;30743;52.008;5.644;2023-04-24T12:26:18;14.50;99.90
45008;DHT22;30743;52.008;5.644;2023-04-24T12:28:46;14.60;99.90
45008;DHT22;30743;52.008;5.644;2023-04-24T12:31:12;14.80;99.90
45008;DHT22;30743;52.008;5.644;2023-04-24T12:33:37;14.80;99.90
45008;DHT22;30743;52.008;5.644;2023-04-24T12:36:03;15.00;99.90
45008;DHT22;30743;52.008;5.644;2023-04-24T12:38:30;14.90;99.90
45008;DHT22;30743;52.008;5.644;2023-04-24T12:41:06;14.70;99.90
45008;DHT22;30743;52.008;5.644;2023-04-24T12:43:32;14.40;99.90
45008;DHT22;30743;52.008;5.644;2023-04-24T12:45:58;14.60;99.90
45008;DHT22;30743;52.008;5.644;2023-04-24T12:48:25;14.70;99.90
45008;DHT22;30743;52.008;5.644;2023-04-24T12:50:51;14.60;99.90
45008;DHT22;30743;52.008;5.644;2023-04-24T12:53:16;14.40;99.90
45008;DHT22;30743;52.008;5.644;2023-04-24T12:55:42;14.50;99.90
45008;DHT22;30743;52.008;5.644;2023-04-24T12:58:07;14.60;99.90
45008;DHT22;30743;52.008;5.644;2023-04-24T13:00:33;14.60;99.90
45008;DHT22;30743;52.008;5.644;2023-04-24T13:02:59;14.20;99.90
45008;DHT22;30743;52.008;5.644;2023-04-24T13:05:24;14.10;99.90
45008;DHT22;30743;52.008;5.644;2023-04-24T13:07:50;14.10;99.90
45008;DHT22;30743;52.008;5.644;2023-04-24T13:10:15;14.30;99.90
45008;DHT22;30743;52.008;5.644;2023-04-24T13:12:41;14.10;99.90
45008;DHT22;30743;52.008;5.644;2023-04-24T13:15:10;14.00;99.90
45008;DHT22;30743;52.008;5.644;2023-04-24T13:17:36;13.90;99.90
45008;DHT22;30743;52.008;5.644;2023-04-24T13:20:01;14.00;99.90
45008;DHT22;30743;52.008;5.644;2023-04-24T13:22:28;14.00;99.90
45008;DHT22;30743;52.008;5.644;2023-04-24T13:24:53;14.00;99.90
45008;DHT22;30743;52.008;5.644;2023-04-24T13:27:19;14.10;99.90
45008;DHT22;30743;52.008;5.644;2023-04-24T13:29:45;14.20;99.90
45008;DHT22;30743;52.008;5.644;2023-04-24T13:32:11;14.20;99.90
45008;DHT22;30743;52.008;5.644;2023-04-24T13:34:37;14.30;99.90
45008;DHT22;30743;52.008;5.644;2023-04-24T13:37:03;14.40;99.90
45008;DHT22;30743;52.008;5.644;2023-04-24T13:39:29;14.50;99.90
45008;DHT22;30743;52.008;5.644;2023-04-24T13:41:55;14.70;99.90
45008;DHT22;30743;52.008;5.644;2023-04-24T13:44:21;14.60;99.90
45008;DHT22;30743;52.008;5.644;2023-04-24T13:46:49;14.80;99.90
45008;DHT22;30743;52.008;5.644;2023-04-24T13:49:15;15.10;99.90
45008;DHT22;30743;52.008;5.644;2023-04-24T13:51:42;15.40;99.90
45008;DHT22;30743;52.008;5.644;2023-04-24T13:54:08;15.90;99.90
45008;DHT22;30743;52.008;5.644;2023-04-24T13:56:34;16.10;99.90
45008;DHT22;30743;52.008;5.644;2023-04-24T13:58:59;16.50;99.90
45008;DHT22;30743;52.008;5.644;2023-04-24T14:01:25;16.40;99.90
45008;DHT22;30743;52.008;5.644;2023-04-24T14:03:51;16.30;99.90
45008;DHT22;30743;52.008;5.644;2023-04-24T14:06:18;15.90;99.90
45008;DHT22;30743;52.008;5.644;2023-04-24T14:08:44;16.00;99.90
45008;DHT22;30743;52.008;5.644;2023-04-24T14:11:09;16.30;99.90
45008;DHT22;30743;52.008;5.644;2023-04-24T14:13:36;16.50;99.90
45008;DHT22;30743;52.008;5.644;2023-04-24T14:16:03;16.80;99.90
45008;DHT22;30743;52.008;5.644;2023-04-24T14:18:28;16.80;99.90
45008;DHT22;30743;52.008;5.644;2023-04-24T14:20:54;16.70;99.90
45008;DHT22;30743;52.008;5.644;2023-04-24T14:23:19;16.90;99.90
45008;DHT22;30743;52.008;5.644;2023-04-24T14:25:45;17.00;99.90
45008;DHT22;30743;52.008;5.644;2023-04-24T14:28:11;17.00;99.90
45008;DHT22;30743;52.008;5.644;2023-04-24T14:30:37;16.80;99.90
45008;DHT22;30743;52.008;5.644;2023-04-24T14:33:03;16.90;99.90
45008;DHT22;30743;52.008;5.644;2023-04-24T14:35:29;17.00;99.90
45008;DHT22;30743;52.008;5.644;2023-04-24T14:37:56;16.70;99.90
45008;DHT22;30743;52.008;5.644;2023-04-24T14:40:22;16.70;99.90
45008;DHT22;30743;52.008;5.644;2023-04-24T14:42:48;16.60;99.90
45008;DHT22;30743;52.008;5.644;2023-04-24T14:45:13;16.80;99.90
45008;DHT22;30743;52.008;5.644;2023-04-24T14:47:39;16.40;99.90
45008;DHT22;30743;52.008;5.644;2023-04-24T14:50:05;16.20;99.90
45008;DHT22;30743;52.008;5.644;2023-04-24T14:52:31;16.20;99.90
45008;DHT22;30743;52.008;5.644;2023-04-24T14:54:56;15.60;99.90
45008;DHT22;30743;52.008;5.644;2023-04-24T14:57:22;15.30;99.90
45008;DHT22;30743;52.008;5.644;2023-04-24T14:59:48;15.00;99.90
45008;DHT22;30743;52.008;5.644;2023-04-24T15:02:14;14.80;99.90
45008;DHT22;30743;52.008;5.644;2023-04-24T15:04:39;15.10;99.90
45008;DHT22;30743;52.008;5.644;2023-04-24T15:07:05;15.20;99.90
45008;DHT22;30743;52.008;5.644;2023-04-24T15:09:30;15.50;99.90
45008;DHT22;30743;52.008;5.644;2023-04-24T15:11:57;15.40;99.90
45008;DHT22;30743;52.008;5.644;2023-04-24T15:14:23;15.20;99.90
45008;DHT22;30743;52.008;5.644;2023-04-24T15:16:49;14.90;99.90
45008;DHT22;30743;52.008;5.644;2023-04-24T15:19:14;14.50;99.90
45008;DHT22;30743;52.008;5.644;2023-04-24T15:21:40;14.40;99.90
45008;DHT22;30743;52.008;5.644;2023-04-24T15:24:07;14.40;99.90
45008;DHT22;30743;52.008;5.644;2023-04-24T15:26:33;14.50;99.90
45008;DHT22;30743;52.008;5.644;2023-04-24T15:28:59;14.50;99.90
45008;DHT22;30743;52.008;5.644;2023-04-24T15:31:24;14.40;99.90
45008;DHT22;30743;52.008;5.644;2023-04-24T15:33:50;14.40;99.90